Time;durP1;ratioP1;P1;durP2;ratioP2;P2;SDS_P1;SDS_P2;PMS_P1;PMS_P2;Temp;Humidity;BMP_temperature;BMP_pressure;BME280_temperature;BME280_humidity;BME280_pressure;Samples;Min_cycle;Max_cycle;Signal;HPM_P1;HPM_P2
2022/04/07 00:01:19;;;;;;;24.73;6.28;;;9.70;99.90;;;;;;5046424;28;20041;-70
2022/04/07 00:03:46;;;;;;;22.98;5.13;;;9.70;99.90;;;;;;5026519;28;20496;-72
2022/04/07 00:06:13;;;;;;;21.52;5.85;;;9.70;99.90;;;;;;5044936;28;20049;-70
2022/04/07 00:08:40;;;;;;;19.63;6.47;;;9.70;99.90;;;;;;5038601;28;20386;-70
2022/04/07 00:11:07;;;;;;;19.15;4.20;;;9.80;99.90;;;;;;5039662;28;20396;-71
2022/04/07 00:13:34;;;;;;;30.92;7.68;;;9.80;99.90;;;;;;5035631;28;20136;-72
2022/04/07 00:16:08;;;;;;;17.58;5.13;;;9.80;99.90;;;;;;5031005;28;20416;-70
2022/04/07 00:18:35;;;;;;;20.95;6.20;;;9.90;99.90;;;;;;5040160;28;20052;-76
2022/04/07 00:21:06;;;;;;;24.95;6.80;;;9.90;99.90;;;;;;5022565;28;20045;-71
2022/04/07 00:23:34;;;;;;;27.80;6.40;;;9.90;99.90;;;;;;5044039;28;20137;-70
2022/04/07 00:26:01;;;;;;;22.77;7.00;;;9.90;99.90;;;;;;5045556;28;20522;-70
2022/04/07 00:28:27;;;;;;;24.00;5.47;;;9.90;99.90;;;;;;5031006;28;20049;-71
2022/04/07 00:30:54;;;;;;;25.00;6.32;;;9.90;99.90;;;;;;5033497;28;20049;-71
2022/04/07 00:33:21;;;;;;;28.15;9.77;;;9.90;99.90;;;;;;5034735;28;20049;-70
2022/04/07 00:35:48;;;;;;;25.73;5.35;;;10.00;99.90;;;;;;5046801;28;20132;-70
2022/04/07 00:38:15;;;;;;;19.20;6.30;;;10.00;99.90;;;;;;5047696;28;20042;-71
2022/04/07 00:40:42;;;;;;;26.40;7.22;;;10.00;99.90;;;;;;5035962;28;20056;-71
2022/04/07 00:43:09;;;;;;;31.00;6.72;;;10.10;99.90;;;;;;5035541;28;20386;-71
2022/04/07 00:45:35;;;;;;;22.55;6.43;;;10.10;99.90;;;;;;5034670;28;20524;-72
2022/04/07 00:48:02;;;;;;;24.25;6.05;;;10.10;99.90;;;;;;5018812;28;20124;-71
2022/04/07 00:50:29;;;;;;;26.33;7.22;;;10.20;99.90;;;;;;5041656;28;20057;-70
2022/04/07 00:52:57;;;;;;;21.77;6.25;;;10.20;99.90;;;;;;5034942;28;20053;-70
2022/04/07 00:55:24;;;;;;;21.35;6.50;;;10.20;99.90;;;;;;5021661;28;20042;-70
2022/04/07 00:57:51;;;;;;;23.13;6.93;;;10.20;99.90;;;;;;5051224;28;20048;-70
2022/04/07 01:00:18;;;;;;;23.63;7.35;;;10.30;99.90;;;;;;5036302;28;20492;-70
2022/04/07 01:02:45;;;;;;;20.77;5.60;;;10.30;99.90;;;;;;5045697;28;20103;-70
2022/04/07 01:05:20;;;;;;;19.92;5.55;;;10.30;99.90;;;;;;5017955;28;20045;-71
2022/04/07 01:07:47;;;;;;;20.20;4.78;;;10.30;99.90;;;;;;5029049;28;20057;-70
2022/04/07 01:10:14;;;;;;;13.60;4.32;;;10.30;99.90;;;;;;5021028;28;20044;-70
2022/04/07 01:12:41;;;;;;;19.27;4.82;;;10.30;99.90;;;;;;5035076;28;20049;-70
2022/04/07 01:15:08;;;;;;;16.17;5.47;;;10.40;99.90;;;;;;5051576;28;20106;-70
2022/04/07 01:17:35;;;;;;;16.55;4.82;;;10.40;99.90;;;;;;5050577;28;20057;-75
2022/04/07 01:20:06;;;;;;;17.58;4.60;;;10.40;99.90;;;;;;5036563;28;20056;-70
2022/04/07 01:22:38;;;;;;;22.92;5.57;;;10.50;99.90;;;;;;5052500;28;20496;-70
2022/04/07 01:25:06;;;;;;;19.83;5.43;;;10.50;99.90;;;;;;5042590;28;20041;-70
2022/04/07 01:27:34;;;;;;;27.58;5.95;;;10.40;99.90;;;;;;5039797;28;20064;-70
2022/04/07 01:30:05;;;;;;;32.22;6.93;;;10.40;99.90;;;;;;5053185;28;20057;-70
2022/04/07 01:32:49;;;;;;;23.38;6.22;;;10.40;99.90;;;;;;5029143;28;20068;-70
2022/04/07 01:35:16;;;;;;;17.92;4.72;;;10.40;99.90;;;;;;5043771;28;20068;-70
2022/04/07 01:37:45;;;;;;;21.88;5.65;;;10.30;99.90;;;;;;5040326;28;20552;-70
2022/04/07 01:40:14;;;;;;;22.73;6.50;;;10.20;99.90;;;;;;5033250;28;20045;-70
2022/04/07 01:42:40;;;;;;;21.70;6.05;;;10.10;99.90;;;;;;5025258;28;20044;-71
2022/04/07 01:45:08;;;;;;;17.08;5.75;;;10.10;99.90;;;;;;5045921;28;20046;-71
2022/04/07 01:47:35;;;;;;;21.73;5.80;;;10.00;99.90;;;;;;5035489;28;20068;-74
2022/04/07 01:50:09;;;;;;;21.45;6.25;;;9.90;99.90;;;;;;5032934;28;20060;-71
2022/04/07 01:52:36;;;;;;;31.88;8.32;;;9.90;99.90;;;;;;5037393;28;20046;-70
2022/04/07 01:55:04;;;;;;;33.22;6.57;;;9.80;99.90;;;;;;5032656;28;20038;-70
2022/04/07 01:57:31;;;;;;;24.10;5.88;;;9.80;99.90;;;;;;5028884;28;20041;-70
2022/04/07 01:59:58;;;;;;;19.88;5.40;;;9.80;99.90;;;;;;5022140;28;20045;-70
2022/04/07 02:02:25;;;;;;;24.58;6.10;;;9.70;99.90;;;;;;5051738;28;20059;-70
2022/04/07 02:05:11;;;;;;;15.25;5.38;;;9.80;99.90;;;;;;5013044;28;20041;-71
2022/04/07 02:07:39;;;;;;;13.93;4.25;;;9.70;99.90;;;;;;5026271;28;20124;-70
2022/04/07 02:10:07;;;;;;;14.90;5.28;;;9.80;99.90;;;;;;5033855;28;20045;-75
2022/04/07 02:12:35;;;;;;;20.65;5.65;;;9.80;99.90;;;;;;5050375;28;20120;-71
2022/04/07 02:15:02;;;;;;;16.60;3.65;;;9.80;99.90;;;;;;5023979;28;20064;-71
2022/04/07 02:17:29;;;;;;;7.13;2.10;;;9.60;99.90;;;;;;5042443;28;20059;-72
2022/04/07 02:19:57;;;;;;;5.85;1.50;;;9.40;99.90;;;;;;5046165;28;20049;-72
2022/04/07 02:22:24;;;;;;;6.93;1.90;;;9.30;99.90;;;;;;5033424;28;20045;-71
2022/04/07 02:24:51;;;;;;;4.53;1.40;;;9.10;99.90;;;;;;5034820;28;20061;-71
2022/04/07 02:27:18;;;;;;;2.63;1.10;;;9.00;99.90;;;;;;5035075;28;20061;-72
2022/04/07 02:29:45;;;;;;;4.88;1.50;;;8.90;99.90;;;;;;5048644;28;20055;-71
2022/04/07 02:32:12;;;;;;;2.45;1.13;;;8.80;99.90;;;;;;5045472;28;20045;-72
2022/04/07 02:34:39;;;;;;;2.92;1.10;;;8.80;99.90;;;;;;5032224;28;20057;-71
2022/04/07 02:37:06;;;;;;;3.25;0.88;;;8.80;99.90;;;;;;5044609;28;20079;-73
2022/04/07 02:39:34;;;;;;;4.97;1.67;;;8.70;99.90;;;;;;5034466;28;20072;-71
2022/04/07 02:42:01;;;;;;;2.85;1.52;;;8.70;99.90;;;;;;5033569;28;20055;-73
2022/04/07 02:44:28;;;;;;;5.53;2.13;;;8.60;99.90;;;;;;5032933;28;20046;-72
2022/04/07 02:46:54;;;;;;;4.30;1.27;;;8.70;99.90;;;;;;5034914;28;20505;-72
2022/04/07 02:49:21;;;;;;;4.03;1.15;;;8.60;99.90;;;;;;5022710;28;20171;-72
2022/04/07 02:51:50;;;;;;;4.32;1.13;;;8.60;99.90;;;;;;5032488;28;20049;-71
2022/04/07 02:54:17;;;;;;;3.10;1.30;;;8.60;99.90;;;;;;5033932;28;20049;-71
2022/04/07 02:56:44;;;;;;;7.55;1.35;;;8.60;99.90;;;;;;5031847;28;20396;-71
2022/04/07 02:59:10;;;;;;;1.70;1.30;;;8.60;99.90;;;;;;5026752;28;20053;-70
2022/04/07 03:01:37;;;;;;;6.50;1.40;;;8.60;99.90;;;;;;5030286;28;20049;-71
2022/04/07 03:04:04;;;;;;;114.57;73.10;;;8.60;99.90;;;;;;5039670;28;20075;-71
2022/04/07 03:06:31;;;;;;;8.98;5.63;;;8.60;99.90;;;;;;5034210;28;20052;-68
2022/04/07 03:08:58;;;;;;;7.18;3.25;;;8.60;99.90;;;;;;5034907;28;20473;-71
2022/04/07 03:11:25;;;;;;;5.18;1.50;;;8.60;99.90;;;;;;5031690;28;20501;-74
2022/04/07 03:13:52;;;;;;;4.35;1.45;;;8.50;99.90;;;;;;5044419;28;20049;-73
2022/04/07 03:16:19;;;;;;;2.08;1.05;;;8.50;99.90;;;;;;5040937;28;20489;-72
2022/04/07 03:18:46;;;;;;;5.22;1.88;;;8.50;99.90;;;;;;5040323;28;20072;-75
2022/04/07 03:21:13;;;;;;;10.70;1.83;;;8.50;99.90;;;;;;5020325;28;20057;-71
2022/04/07 03:23:39;;;;;;;6.82;1.55;;;8.40;99.90;;;;;;5045677;28;20051;-72
2022/04/07 03:26:06;;;;;;;6.82;1.88;;;8.40;99.90;;;;;;5035949;28;20041;-72
2022/04/07 03:28:33;;;;;;;5.93;1.70;;;8.30;99.90;;;;;;5030548;28;20068;-74
2022/04/07 03:31:00;;;;;;;5.90;1.50;;;8.30;99.90;;;;;;5032100;28;20481;-75
2022/04/07 03:33:27;;;;;;;5.10;1.77;;;8.30;99.90;;;;;;5031608;28;20325;-72
2022/04/07 03:35:54;;;;;;;4.93;1.25;;;8.20;99.90;;;;;;5035434;28;20452;-71
2022/04/07 03:38:21;;;;;;;7.88;1.75;;;8.10;99.90;;;;;;5031723;28;20041;-71
2022/04/07 03:40:48;;;;;;;5.78;1.92;;;8.10;99.90;;;;;;5040930;28;20046;-71
2022/04/07 03:43:14;;;;;;;3.05;1.40;;;8.00;99.90;;;;;;5039374;28;20095;-71
2022/04/07 03:45:41;;;;;;;2.85;1.58;;;8.00;99.90;;;;;;5041564;28;20053;-71
2022/04/07 03:48:08;;;;;;;4.80;1.55;;;7.90;99.90;;;;;;5012875;28;20076;-72
2022/04/07 03:50:35;;;;;;;3.13;1.83;;;7.90;99.90;;;;;;5028381;28;20055;-72
2022/04/07 03:53:02;;;;;;;4.80;1.88;;;7.80;99.90;;;;;;5040601;28;20049;-72
2022/04/07 03:55:29;;;;;;;3.72;1.40;;;7.70;99.90;;;;;;5017628;28;20128;-74
2022/04/07 03:57:56;;;;;;;4.88;1.55;;;7.70;99.90;;;;;;5029555;28;20049;-71
2022/04/07 04:00:23;;;;;;;4.32;1.17;;;7.60;99.90;;;;;;5030870;28;20052;-71
2022/04/07 04:02:50;;;;;;;5.05;1.83;;;7.60;99.90;;;;;;5031996;28;20400;-71
2022/04/07 04:05:18;;;;;;;6.78;1.80;;;7.60;99.90;;;;;;5033196;28;20055;-72
2022/04/07 04:07:45;;;;;;;4.28;1.75;;;7.50;99.90;;;;;;5040484;28;20064;-75
2022/04/07 04:10:12;;;;;;;5.70;2.63;;;7.50;99.90;;;;;;5035820;28;20053;-71
2022/04/07 04:12:39;;;;;;;4.35;1.40;;;7.50;99.90;;;;;;5016028;28;20057;-72
2022/04/07 04:15:07;;;;;;;5.40;1.55;;;7.50;99.90;;;;;;5035135;28;20512;-73
2022/04/07 04:17:33;;;;;;;5.07;1.20;;;7.50;99.90;;;;;;5033219;28;20524;-71
2022/04/07 04:20:01;;;;;;;6.40;1.40;;;7.50;99.90;;;;;;5035379;28;20041;-72
2022/04/07 04:22:28;;;;;;;4.55;1.70;;;7.50;99.90;;;;;;5039284;28;20041;-72
2022/04/07 04:24:55;;;;;;;5.00;1.90;;;7.50;99.90;;;;;;5046424;28;20049;-71
2022/04/07 04:27:22;;;;;;;7.07;1.50;;;7.50;99.90;;;;;;5035815;28;20054;-71
2022/04/07 04:29:49;;;;;;;4.18;1.40;;;7.40;99.90;;;;;;5034840;28;20049;-71
2022/04/07 04:32:16;;;;;;;3.45;1.40;;;7.50;99.90;;;;;;5034322;28;20775;-73
2022/04/07 04:34:43;;;;;;;5.13;2.28;;;7.40;99.90;;;;;;5035386;28;20064;-71
2022/04/07 04:37:10;;;;;;;5.88;2.17;;;7.40;99.90;;;;;;5046809;28;20056;-71
2022/04/07 04:39:37;;;;;;;5.60;1.55;;;7.30;99.90;;;;;;5037459;28;20073;-70
2022/04/07 04:42:04;;;;;;;8.10;2.13;;;7.20;99.90;;;;;;5014600;28;20108;-71
2022/04/07 04:44:32;;;;;;;4.72;1.55;;;7.20;99.90;;;;;;5035700;28;20045;-71
2022/04/07 04:46:59;;;;;;;6.30;1.58;;;7.20;99.90;;;;;;5030553;28;20060;-71
2022/04/07 04:49:26;;;;;;;6.93;2.90;;;7.20;99.90;;;;;;5034373;28;20053;-73
2022/04/07 04:51:52;;;;;;;8.55;2.58;;;7.10;99.90;;;;;;5036952;28;20046;-72
2022/04/07 04:54:19;;;;;;;4.50;2.10;;;7.10;99.90;;;;;;5038861;28;20053;-70
2022/04/07 04:56:46;;;;;;;5.38;2.10;;;7.10;99.90;;;;;;5041153;28;20045;-72
2022/04/07 04:59:13;;;;;;;4.95;2.05;;;7.10;99.90;;;;;;5037254;28;20069;-72
2022/04/07 05:01:40;;;;;;;3.53;1.75;;;7.10;99.90;;;;;;5034616;28;20054;-70
2022/04/07 05:04:07;;;;;;;6.20;1.60;;;7.10;99.90;;;;;;5034217;28;20099;-70
2022/04/07 05:06:34;;;;;;;4.28;1.50;;;7.10;99.90;;;;;;5043803;28;20041;-72
2022/04/07 05:09:00;;;;;;;4.30;1.55;;;7.10;99.90;;;;;;5047768;28;20045;-72
2022/04/07 05:11:27;;;;;;;4.95;1.52;;;7.20;99.90;;;;;;5037719;28;20117;-71
2022/04/07 05:13:54;;;;;;;3.60;1.42;;;7.10;99.90;;;;;;5048918;28;20051;-71
2022/04/07 05:16:21;;;;;;;5.10;1.75;;;7.10;99.90;;;;;;5032841;28;20041;-71
2022/04/07 05:18:49;;;;;;;5.03;1.58;;;7.20;99.90;;;;;;5033198;28;20049;-73
2022/04/07 05:21:16;;;;;;;6.07;1.70;;;7.20;99.90;;;;;;5038222;28;20046;-71
2022/04/07 05:23:43;;;;;;;5.28;1.67;;;7.20;99.90;;;;;;5033672;28;20053;-71
2022/04/07 05:26:12;;;;;;;3.58;1.48;;;7.20;99.90;;;;;;5036168;28;20045;-72
2022/04/07 05:28:42;;;;;;;7.55;2.40;;;7.20;99.90;;;;;;5036433;28;20125;-73
2022/04/07 05:31:10;;;;;;;6.15;2.28;;;7.10;99.90;;;;;;5047220;28;20046;-72
2022/04/07 05:33:37;;;;;;;11.65;3.35;;;7.10;99.90;;;;;;5050329;28;20049;-71
2022/04/07 05:36:04;;;;;;;6.93;2.30;;;7.10;99.90;;;;;;5039437;28;20052;-72
2022/04/07 05:38:31;;;;;;;11.55;1.90;;;7.10;99.90;;;;;;5046568;28;20493;-71
2022/04/07 05:40:58;;;;;;;6.68;2.45;;;7.20;99.90;;;;;;5037685;28;20049;-70
2022/04/07 05:43:25;;;;;;;5.05;1.90;;;7.10;99.90;;;;;;5034168;28;20107;-74
2022/04/07 05:45:52;;;;;;;7.90;2.22;;;7.10;99.90;;;;;;5035712;28;20491;-71
2022/04/07 05:48:19;;;;;;;6.20;2.30;;;7.10;99.90;;;;;;5040025;28;20128;-72
2022/04/07 05:50:46;;;;;;;5.15;2.47;;;7.20;99.90;;;;;;5037348;28;20041;-71
2022/04/07 05:53:13;;;;;;;25.77;15.05;;;7.20;99.90;;;;;;5047561;28;20044;-70
2022/04/07 05:55:40;;;;;;;43.30;29.67;;;7.20;99.90;;;;;;5035476;28;20076;-71
2022/04/07 05:58:08;;;;;;;13.85;4.97;;;7.30;99.90;;;;;;5034730;28;20493;-72
2022/04/07 06:00:37;;;;;;;10.00;2.88;;;7.30;99.90;;;;;;5041935;28;20046;-72
2022/04/07 06:03:04;;;;;;;8.68;2.58;;;7.30;99.90;;;;;;5048991;28;20048;-68
2022/04/07 06:05:31;;;;;;;10.68;3.70;;;7.30;99.90;;;;;;5036679;28;20045;-71
2022/04/07 06:07:59;;;;;;;11.20;3.60;;;7.20;99.90;;;;;;5047230;28;20080;-70
2022/04/07 06:10:26;;;;;;;11.70;2.50;;;7.20;99.90;;;;;;5015717;28;20128;-72
2022/04/07 06:12:53;;;;;;;12.35;3.78;;;7.30;99.90;;;;;;5032201;28;20132;-69
2022/04/07 06:15:20;;;;;;;9.70;3.22;;;7.30;99.90;;;;;;5034592;28;20044;-71
2022/04/07 06:17:47;;;;;;;46.50;25.08;;;7.30;99.90;;;;;;5036063;28;20041;-71
2022/04/07 06:20:14;;;;;;;12.90;7.25;;;7.30;99.90;;;;;;5031345;28;20049;-74
2022/04/07 06:22:42;;;;;;;25.23;5.93;;;7.40;99.90;;;;;;5032487;28;20049;-71
2022/04/07 06:25:09;;;;;;;15.15;3.20;;;7.40;99.90;;;;;;5031964;28;20642;-71
2022/04/07 06:27:44;;;;;;;10.05;2.50;;;7.40;99.90;;;;;;5031229;28;20045;-71
2022/04/07 06:30:12;;;;;;;12.18;2.80;;;7.40;99.90;;;;;;5040507;28;20053;-70
2022/04/07 06:32:39;;;;;;;15.95;3.85;;;7.50;99.90;;;;;;5058593;28;20053;-70
2022/04/07 06:35:07;;;;;;;17.17;3.38;;;7.50;99.90;;;;;;5031941;28;20049;-71
2022/04/07 06:37:44;;;;;;;15.80;3.63;;;7.60;99.90;;;;;;5038194;28;20053;-69
2022/04/07 06:40:11;;;;;;;16.88;3.88;;;7.60;99.90;;;;;;5031651;28;20052;-70
2022/04/07 06:42:38;;;;;;;10.00;2.97;;;7.70;99.90;;;;;;5039977;28;20048;-70
2022/04/07 06:45:06;;;;;;;21.38;3.40;;;7.70;99.90;;;;;;5035424;28;20067;-70
2022/04/07 06:47:38;;;;;;;12.93;3.05;;;7.70;99.90;;;;;;5034665;28;20053;-70
2022/04/07 06:50:09;;;;;;;14.95;2.97;;;7.70;99.90;;;;;;5027015;28;20128;-70
2022/04/07 06:52:36;;;;;;;9.60;2.63;;;7.80;99.90;;;;;;5043758;28;20050;-70
2022/04/07 06:55:04;;;;;;;13.57;3.40;;;7.80;99.90;;;;;;5036043;28;20053;-70
2022/04/07 06:57:30;;;;;;;16.40;5.57;;;7.90;99.90;;;;;;5037009;28;20057;-70
2022/04/07 06:59:57;;;;;;;13.10;3.22;;;7.90;99.90;;;;;;5038324;28;20048;-70
2022/04/07 07:02:24;;;;;;;11.85;3.78;;;8.00;99.90;;;;;;5045384;28;20451;-70
2022/04/07 07:04:57;;;;;;;17.63;4.60;;;8.00;99.90;;;;;;5040614;28;20056;-70
2022/04/07 07:07:24;;;;;;;15.35;3.88;;;8.00;99.90;;;;;;5033259;28;20409;-70
2022/04/07 07:09:51;;;;;;;15.10;3.58;;;8.10;99.90;;;;;;5028705;28;20128;-70
2022/04/07 07:12:18;;;;;;;9.85;3.85;;;8.10;99.90;;;;;;5032426;28;20073;-70
2022/04/07 07:14:47;;;;;;;10.55;3.30;;;8.10;99.90;;;;;;5035201;28;20095;-70
2022/04/07 07:17:14;;;;;;;10.30;2.90;;;8.10;99.90;;;;;;5027791;28;20051;-70
2022/04/07 07:19:40;;;;;;;13.45;3.50;;;8.10;99.90;;;;;;5032065;28;20046;-70
2022/04/07 07:22:07;;;;;;;9.52;2.83;;;8.10;99.90;;;;;;5030500;28;20048;-70
2022/04/07 07:24:34;;;;;;;18.67;3.80;;;8.20;99.90;;;;;;5032756;28;20060;-74
2022/04/07 07:27:01;;;;;;;20.90;5.13;;;8.20;99.90;;;;;;5031759;28;20060;-73
2022/04/07 07:29:29;;;;;;;14.93;3.85;;;8.30;99.90;;;;;;5038424;28;20037;-71
2022/04/07 07:31:56;;;;;;;15.57;3.47;;;8.30;99.90;;;;;;5032560;28;20041;-76
2022/04/07 07:34:23;;;;;;;12.77;3.85;;;8.40;99.90;;;;;;5018862;28;20060;-74
2022/04/07 07:36:50;;;;;;;10.68;3.50;;;8.40;99.90;;;;;;5032274;28;20512;-75
2022/04/07 07:39:17;;;;;;;18.45;10.90;;;8.40;99.90;;;;;;5030123;28;20076;-73
2022/04/07 07:41:43;;;;;;;17.63;6.13;;;8.50;99.90;;;;;;5030573;28;20045;-68
2022/04/07 07:44:11;;;;;;;8.85;3.28;;;8.70;99.90;;;;;;5031982;28;20049;-77
2022/04/07 07:46:38;;;;;;;7.80;2.78;;;8.80;99.90;;;;;;5035386;28;20064;-74
2022/04/07 07:49:06;;;;;;;12.75;4.13;;;8.90;99.90;;;;;;5030613;28;20124;-76
2022/04/07 07:51:33;;;;;;;13.60;3.55;;;8.90;99.90;;;;;;5031262;28;20121;-74
2022/04/07 07:54:00;;;;;;;13.35;3.13;;;8.90;99.90;;;;;;5032279;28;20052;-79
2022/04/07 07:56:26;;;;;;;12.30;3.25;;;8.90;99.90;;;;;;5030887;28;20045;-73
2022/04/07 07:59:01;;;;;;;12.50;3.53;;;9.00;99.90;;;;;;5029239;28;20057;-70
2022/04/07 08:01:28;;;;;;;11.27;3.33;;;9.10;99.90;;;;;;5021394;28;20057;-69
2022/04/07 08:03:55;;;;;;;12.18;3.13;;;9.20;99.90;;;;;;5027256;28;20052;-69
2022/04/07 08:06:22;;;;;;;17.25;4.35;;;9.30;99.90;;;;;;5025048;28;20121;-73
2022/04/07 08:08:49;;;;;;;14.32;3.47;;;9.30;99.90;;;;;;5039904;28;20499;-70
2022/04/07 08:11:20;;;;;;;99.75;70.20;;;9.30;99.90;;;;;;5017899;28;20464;-75
2022/04/07 08:13:47;;;;;;;14.93;5.93;;;9.40;99.90;;;;;;5036517;28;20412;-73
2022/04/07 08:16:14;;;;;;;11.57;3.72;;;9.50;99.90;;;;;;5018912;28;20045;-75
2022/04/07 08:18:41;;;;;;;16.42;3.55;;;9.50;99.90;;;;;;5013410;28;20501;-71
2022/04/07 08:21:08;;;;;;;11.85;3.85;;;9.50;99.90;;;;;;5033997;28;20073;-74
2022/04/07 08:23:35;;;;;;;7.57;2.53;;;9.50;99.90;;;;;;5030621;28;20054;-70
2022/04/07 08:26:02;;;;;;;12.15;3.90;;;9.50;99.90;;;;;;5029913;28;20057;-70
2022/04/07 08:28:29;;;;;;;10.65;3.80;;;9.60;99.90;;;;;;5027470;28;20057;-70
2022/04/07 08:30:56;;;;;;;10.40;3.53;;;9.60;99.90;;;;;;5030238;28;20124;-70
2022/04/07 08:33:23;;;;;;;7.97;2.88;;;9.60;99.90;;;;;;5028536;28;20066;-70
2022/04/07 08:35:51;;;;;;;11.73;2.65;;;9.70;99.90;;;;;;5029901;28;20057;-70
2022/04/07 08:38:19;;;;;;;10.23;2.97;;;9.80;99.90;;;;;;5029100;28;20120;-71
2022/04/07 08:40:46;;;;;;;13.18;3.60;;;9.80;99.90;;;;;;5030105;28;20390;-70
2022/04/07 08:43:13;;;;;;;11.90;3.33;;;9.90;99.90;;;;;;5029313;28;20052;-70
2022/04/07 08:45:41;;;;;;;13.60;3.85;;;9.90;99.90;;;;;;5030702;28;20053;-72
2022/04/07 08:48:09;;;;;;;9.43;2.92;;;9.90;99.90;;;;;;5029165;28;20045;-70
2022/04/07 08:50:38;;;;;;;13.25;4.15;;;10.00;99.90;;;;;;5029986;28;20057;-70
2022/04/07 08:53:06;;;;;;;10.63;5.07;;;10.00;99.90;;;;;;5034180;28;20041;-70
2022/04/07 08:55:33;;;;;;;11.23;3.78;;;9.90;99.90;;;;;;5034416;28;20061;-70
2022/04/07 08:58:04;;;;;;;11.18;2.95;;;10.00;99.90;;;;;;5031696;28;20093;-70
2022/04/07 09:00:32;;;;;;;10.30;3.20;;;10.00;99.90;;;;;;5031132;28;20053;-69
2022/04/07 09:02:58;;;;;;;15.20;4.50;;;10.00;99.90;;;;;;5032359;28;20053;-70
2022/04/07 09:05:31;;;;;;;9.73;2.78;;;10.10;99.90;;;;;;5033019;28;20046;-69
2022/04/07 09:07:58;;;;;;;9.98;3.03;;;10.10;99.90;;;;;;5041516;28;20056;-70
2022/04/07 09:10:26;;;;;;;12.57;3.40;;;10.20;99.90;;;;;;5033457;28;20075;-70
2022/04/07 09:12:53;;;;;;;8.90;2.92;;;10.20;99.40;;;;;;5032985;28;20787;-71
2022/04/07 09:15:22;;;;;;;8.13;3.20;;;10.40;99.90;;;;;;5033597;28;20567;-69
2022/04/07 09:17:51;;;;;;;12.90;3.63;;;10.60;99.90;;;;;;5029161;28;20049;-70
2022/04/07 09:20:19;;;;;;;18.65;4.15;;;10.60;99.10;;;;;;5032718;28;20063;-69
2022/04/07 09:22:57;;;;;;;13.23;3.13;;;10.60;99.20;;;;;;5013957;28;20081;-70
2022/04/07 09:25:25;;;;;;;14.32;3.72;;;10.70;99.20;;;;;;5026982;28;20075;-70
2022/04/07 09:27:53;;;;;;;12.63;2.85;;;10.70;98.70;;;;;;5032193;28;20493;-70
2022/04/07 09:30:20;;;;;;;7.95;2.20;;;10.60;95.20;;;;;;5016042;28;20049;-69
2022/04/07 09:32:47;;;;;;;9.52;3.10;;;10.60;95.40;;;;;;5033397;28;20133;-70
2022/04/07 09:35:14;;;;;;;9.43;3.10;;;10.60;94.60;;;;;;5033654;28;20060;-70
2022/04/07 09:37:42;;;;;;;16.00;4.13;;;10.70;95.20;;;;;;5044458;28;20060;-70
2022/04/07 09:40:11;;;;;;;9.32;2.40;;;10.80;94.80;;;;;;5016195;28;20057;-70
2022/04/07 09:42:38;;;;;;;11.88;3.60;;;10.90;95.70;;;;;;5066208;28;20100;-70
2022/04/07 09:45:07;;;;;;;14.73;3.20;;;10.80;92.90;;;;;;5033619;28;20484;-70
2022/04/07 09:47:39;;;;;;;10.70;2.42;;;10.80;92.90;;;;;;5031892;28;20049;-70
2022/04/07 09:50:06;;;;;;;8.68;2.47;;;10.80;91.00;;;;;;5027935;28;20052;-69
2022/04/07 09:52:33;;;;;;;9.20;2.67;;;11.00;92.30;;;;;;5032519;28;20045;-69
2022/04/07 09:55:06;;;;;;;12.13;2.80;;;11.20;91.30;;;;;;5032621;28;20045;-69
2022/04/07 09:57:33;;;;;;;10.27;3.85;;;11.30;91.20;;;;;;5033534;28;20081;-69
2022/04/07 10:00:04;;;;;;;10.05;2.85;;;11.30;90.20;;;;;;5031728;28;20057;-69
2022/04/07 10:02:32;;;;;;;7.60;2.60;;;11.30;88.70;;;;;;5044598;28;20053;-69
2022/04/07 10:05:00;;;;;;;12.23;3.70;;;11.30;89.10;;;;;;5052462;28;20049;-69
2022/04/07 10:07:27;;;;;;;10.38;3.97;;;11.30;91.20;;;;;;5032540;28;20048;-70
2022/04/07 10:09:54;;;;;;;10.02;2.55;;;11.30;90.90;;;;;;5037576;28;20049;-70
2022/04/07 10:12:22;;;;;;;8.60;2.90;;;11.40;90.20;;;;;;5032056;28;20053;-70
2022/04/07 10:14:48;;;;;;;10.40;3.28;;;11.40;89.20;;;;;;5031516;28;20045;-71
2022/04/07 10:17:16;;;;;;;16.70;3.78;;;11.40;88.30;;;;;;5031890;28;20125;-70
2022/04/07 10:19:54;;;;;;;14.05;3.25;;;11.40;88.40;;;;;;5031841;28;20054;-69
2022/04/07 10:22:59;;;;;;;8.68;2.78;;;11.50;89.50;;;;;;5015013;28;20045;-70
2022/04/07 10:25:26;;;;;;;9.20;2.83;;;11.60;86.20;;;;;;5021751;28;20056;-70
2022/04/07 10:27:55;;;;;;;9.77;3.03;;;11.60;86.50;;;;;;5031046;28;20081;-70
2022/04/07 10:30:22;;;;;;;9.40;2.92;;;11.60;85.90;;;;;;5031626;28;20053;-70
2022/04/07 10:32:56;;;;;;;11.57;3.05;;;11.70;87.40;;;;;;5032887;28;20133;-70
2022/04/07 10:35:35;;;;;;;10.18;2.88;;;11.80;85.60;;;;;;5031570;28;20072;-69
2022/04/07 10:38:07;;;;;;;10.38;2.97;;;11.90;84.70;;;;;;5046459;28;20045;-69
2022/04/07 10:40:50;;;;;;;8.82;2.70;;;11.90;83.00;;;;;;5016915;28;20050;-70
2022/04/07 10:43:25;;;;;;;8.77;2.45;;;11.90;83.50;;;;;;5005249;28;20046;-68
2022/04/07 10:46:09;;;;;;;21.30;11.13;;;12.10;83.90;;;;;;5058933;28;20052;-74
2022/04/07 10:48:36;;;;;;;7.95;3.47;;;12.20;80.00;;;;;;5042092;28;20049;-72
2022/04/07 10:51:10;;;;;;;5.97;2.38;;;12.20;82.90;;;;;;5031733;28;20049;-74
2022/04/07 10:53:38;;;;;;;8.50;3.40;;;12.30;81.40;;;;;;5039750;28;20513;-75
2022/04/07 10:56:10;;;;;;;8.73;2.92;;;12.30;81.20;;;;;;5030174;28;20049;-71
2022/04/07 10:58:38;;;;;;;10.27;2.53;;;12.40;80.80;;;;;;5032841;28;20072;-75
2022/04/07 11:01:05;;;;;;;10.45;2.83;;;12.40;81.90;;;;;;5030466;28;20054;-69
2022/04/07 11:03:33;;;;;;;7.40;2.13;;;12.30;78.80;;;;;;5031760;28;20128;-72
2022/04/07 11:06:00;;;;;;;5.82;1.90;;;12.20;78.30;;;;;;5016356;28;20056;-72
2022/04/07 11:08:30;;;;;;;7.68;2.25;;;12.10;79.00;;;;;;5032983;28;20049;-68
2022/04/07 11:10:57;;;;;;;6.38;2.00;;;12.10;78.10;;;;;;5030894;28;20049;-71
2022/04/07 11:13:50;;;;;;;6.88;2.17;;;12.00;78.00;;;;;;5031893;28;20051;-70
2022/04/07 11:16:24;;;;;;;8.65;2.72;;;12.10;79.30;;;;;;5031612;28;20081;-71
2022/04/07 11:19:13;;;;;;;7.72;2.42;;;12.10;74.70;;;;;;5015009;28;20132;-70
2022/04/07 11:21:49;;;;;;;6.40;2.25;;;12.10;77.00;;;;;;5031743;28;20404;-70
2022/04/07 11:24:23;;;;;;;6.70;2.72;;;12.10;76.60;;;;;;5030788;28;20081;-69
2022/04/07 11:26:53;;;;;;;6.20;2.15;;;12.10;76.50;;;;;;5030607;28;20543;-70
2022/04/07 11:29:34;;;;;;;8.65;4.97;;;12.10;77.80;;;;;;5014336;28;20133;-75
2022/04/07 11:32:08;;;;;;;5.15;2.03;;;12.20;74.80;;;;;;5008380;28;20502;-67
2022/04/07 11:34:51;;;;;;;7.88;2.13;;;12.30;73.30;;;;;;5031128;28;20072;-77
2022/04/07 11:37:19;;;;;;;14.50;3.35;;;12.30;74.80;;;;;;5032297;28;20045;-76
2022/04/07 11:39:48;;;;;;;4.43;2.35;;;12.40;73.40;;;;;;5031414;28;20171;-75
2022/04/07 11:42:19;;;;;;;6.40;1.93;;;12.40;73.20;;;;;;5031070;28;20049;-75
2022/04/07 11:44:46;;;;;;;7.40;2.38;;;12.40;75.00;;;;;;5031137;28;20052;-70
2022/04/07 11:47:28;;;;;;;5.90;1.70;;;12.50;76.60;;;;;;5028791;28;20042;-72
2022/04/07 11:49:55;;;;;;;10.02;3.08;;;12.40;71.10;;;;;;5028947;28;20072;-74
2022/04/07 11:52:23;;;;;;;6.35;2.00;;;12.50;74.90;;;;;;5029735;28;20045;-72
2022/04/07 11:54:54;;;;;;;7.33;2.10;;;12.70;72.50;;;;;;5028219;28;20099;-75
2022/04/07 11:57:23;;;;;;;9.20;1.92;;;12.90;72.90;;;;;;5012742;28;20893;-73
2022/04/07 11:59:54;;;;;;;8.75;3.08;;;13.10;73.30;;;;;;5012402;28;20057;-75
2022/04/07 12:02:22;;;;;;;9.98;2.03;;;13.10;69.40;;;;;;5028924;28;20045;-75
2022/04/07 12:05:04;;;;;;;7.00;2.22;;;13.20;72.10;;;;;;5012957;28;20481;-74
2022/04/07 12:07:32;;;;;;;5.00;1.60;;;13.30;67.30;;;;;;5031449;28;20053;-75
2022/04/07 12:10:09;;;;;;;6.47;1.60;;;13.20;67.00;;;;;;5012602;28;20038;-78
2022/04/07 12:12:40;;;;;;;8.30;1.80;;;13.20;67.20;;;;;;5029445;28;20461;-78
2022/04/07 12:15:11;;;;;;;7.35;1.98;;;13.20;66.10;;;;;;5028993;28;20045;-79
2022/04/07 12:17:57;;;;;;;7.82;4.38;;;13.10;67.50;;;;;;5013785;28;20050;-76
2022/04/07 12:20:25;;;;;;;5.75;3.25;;;13.00;66.00;;;;;;5022022;28;20119;-78
2022/04/07 12:23:07;;;;;;;6.82;1.90;;;13.00;65.90;;;;;;5013400;28;20050;-74
2022/04/07 12:25:35;;;;;;;7.30;2.35;;;13.10;65.30;;;;;;5030836;28;20488;-77
2022/04/07 12:28:12;;;;;;;5.95;2.65;;;13.00;66.20;;;;;;5038426;28;20093;-77
2022/04/07 12:30:42;;;;;;;6.20;2.42;;;13.00;66.60;;;;;;5033851;28;20049;-77
2022/04/07 12:33:09;;;;;;;6.43;2.00;;;12.90;68.00;;;;;;5033047;28;20049;-69
2022/04/07 12:35:57;;;;;;;3.42;1.40;;;12.80;64.80;;;;;;5034335;28;20061;-76
2022/04/07 12:38:23;;;;;;;4.28;1.45;;;12.70;65.90;;;;;;5043661;28;20052;-73
2022/04/07 12:40:50;;;;;;;6.55;1.88;;;12.60;66.30;;;;;;5025022;28;20075;-72
2022/04/07 12:43:17;;;;;;;4.07;1.50;;;12.60;64.70;;;;;;5041884;28;20626;-75
2022/04/07 12:45:58;;;;;;;6.28;1.70;;;12.50;65.60;;;;;;5018407;28;20037;-71
2022/04/07 12:48:25;;;;;;;7.63;2.22;;;12.50;65.50;;;;;;5036177;28;20036;-75
2022/04/07 12:50:54;;;;;;;4.85;1.52;;;12.60;66.10;;;;;;5046174;28;20045;-73
2022/04/07 12:53:29;;;;;;;4.95;1.65;;;12.80;67.00;;;;;;5007591;28;20053;-72
2022/04/07 12:55:57;;;;;;;9.32;2.03;;;12.90;66.10;;;;;;5039727;28;20379;-75